AAL681 KEYW-MMUN
Flight info
| Callsign | AAL681 |
|---|---|
| Flight time | 1h 5m |
| Altitude | 34000 |
| Route | EYW DCT CANOA UB879 CUN |
| Aircraft | B738/M-SDE2E3FGHIRWXY/LB1 |
Departure
| Time | 2026-04-28 01:10 |
|---|---|
| Airport | Key West International Airport (KEYW) |
Arrival
| Time | 2026-04-28 02:15 |
|---|---|
| Airport | Cancún International Airport (MMUN) |
| Time | Latitude | Longitude | Altitude | Speed | Heading |
|---|---|---|---|---|---|
| 2026-04-28 00:49 | 24.55407 | -81.75415 | 8 ft | 0 kts | 271° |
| 2026-04-28 01:05 | 24.55422 | -81.75444 | 8 ft | 9 kts | 335° |
| 2026-04-28 01:06 | 24.55488 | -81.75452 | 8 ft | 0 kts | 3° |
| 2026-04-28 01:06 | 24.55508 | -81.75454 | 8 ft | 10 kts | 341° |
| 2026-04-28 01:06 | 24.55531 | -81.75606 | 8 ft | 29 kts | 269° |
| 2026-04-28 01:07 | 24.55529 | -81.75858 | 8 ft | 32 kts | 274° |
| 2026-04-28 01:07 | 24.55525 | -81.76101 | 8 ft | 30 kts | 268° |
| 2026-04-28 01:07 | 24.55521 | -81.76327 | 8 ft | 28 kts | 269° |
| 2026-04-28 01:07 | 24.55520 | -81.76532 | 8 ft | 21 kts | 270° |
| 2026-04-28 01:08 | 24.55523 | -81.76628 | 8 ft | 0 kts | 295° |
| 2026-04-28 01:08 | 24.55523 | -81.76629 | 8 ft | 0 kts | 295° |
| 2026-04-28 01:08 | 24.55576 | -81.76658 | 8 ft | 18 kts | 344° |
| 2026-04-28 01:09 | 24.55611 | -81.76733 | 8 ft | 1 kts | 161° |
| 2026-04-28 01:09 | 24.55609 | -81.76725 | 8 ft | 0 kts | 96° |
| 2026-04-28 01:09 | 24.55606 | -81.76688 | 8 ft | 28 kts | 94° |
| 2026-04-28 01:09 | 24.55614 | -81.76164 | 8 ft | 107 kts | 89° |
| 2026-04-28 01:10 | 24.55633 | -81.75092 | 28 ft | 170 kts | 87° |
| 2026-04-28 01:10 | 24.55745 | -81.73653 | 343 ft | 205 kts | 79° |
| 2026-04-28 01:10 | 24.56165 | -81.72029 | 795 ft | 238 kts | 68° |
| 2026-04-28 01:10 | 24.56861 | -81.70370 | 1478 ft | 239 kts | 62° |
| 2026-04-28 01:11 | 24.57656 | -81.68803 | 2090 ft | 240 kts | 56° |
| 2026-04-28 01:11 | 24.58751 | -81.67354 | 2444 ft | 252 kts | 43° |
| 2026-04-28 01:11 | 24.60135 | -81.66142 | 3001 ft | 255 kts | 35° |
| 2026-04-28 01:11 | 24.61680 | -81.65126 | 3752 ft | 263 kts | 28° |
| 2026-04-28 01:12 | 24.63340 | -81.64374 | 4745 ft | 262 kts | 17° |
| 2026-04-28 01:12 | 24.65117 | -81.63997 | 5588 ft | 267 kts | 6° |
| 2026-04-28 01:12 | 24.66969 | -81.63940 | 6459 ft | 270 kts | 359° |
| 2026-04-28 01:12 | 24.68849 | -81.64188 | 7266 ft | 275 kts | 348° |
| 2026-04-28 01:13 | 24.70661 | -81.64861 | 8072 ft | 280 kts | 336° |
| 2026-04-28 01:13 | 24.73927 | -81.67210 | 9690 ft | 287 kts | 317° |
| 2026-04-28 01:13 | 24.75232 | -81.68900 | 10393 ft | 294 kts | 306° |
| 2026-04-28 01:14 | 24.76254 | -81.70885 | 10934 ft | 307 kts | 296° |
| 2026-04-28 01:14 | 24.76973 | -81.73122 | 11674 ft | 312 kts | 285° |
| 2026-04-28 01:14 | 24.77245 | -81.75500 | 12391 ft | 318 kts | 272° |
| 2026-04-28 01:14 | 24.77058 | -81.77904 | 13082 ft | 323 kts | 262° |
| 2026-04-28 01:15 | 24.76461 | -81.80314 | 13756 ft | 330 kts | 251° |
| 2026-04-28 01:15 | 24.75380 | -81.82538 | 14384 ft | 338 kts | 237° |
| 2026-04-28 01:15 | 24.73804 | -81.84499 | 15046 ft | 344 kts | 225° |
| 2026-04-28 01:15 | 24.71928 | -81.86108 | 15691 ft | 349 kts | 213° |
| 2026-04-28 01:16 | 24.69705 | -81.87239 | 16266 ft | 355 kts | 199° |
| 2026-04-28 01:16 | 24.67360 | -81.88132 | 16852 ft | 359 kts | 202° |
| 2026-04-28 01:16 | 24.65064 | -81.89236 | 17442 ft | 362 kts | 206° |
| 2026-04-28 01:16 | 24.62752 | -81.90461 | 18034 ft | 366 kts | 207° |
| 2026-04-28 01:17 | 24.60479 | -81.91695 | 18692 ft | 367 kts | 208° |
| 2026-04-28 01:17 | 24.58203 | -81.92940 | 19262 ft | 370 kts | 208° |
| 2026-04-28 01:17 | 24.55949 | -81.94310 | 19888 ft | 370 kts | 214° |
| 2026-04-28 01:17 | 24.53820 | -81.95948 | 20435 ft | 372 kts | 221° |
| 2026-04-28 01:18 | 24.51876 | -81.97819 | 21008 ft | 372 kts | 227° |
| 2026-04-28 01:18 | 24.50160 | -81.99896 | 21507 ft | 373 kts | 234° |
| 2026-04-28 01:18 | 24.48637 | -82.02196 | 22034 ft | 373 kts | 240° |
| 2026-04-28 01:18 | 24.47281 | -82.04620 | 22559 ft | 374 kts | 244° |
| 2026-04-28 01:19 | 24.46013 | -82.07134 | 23058 ft | 375 kts | 245° |
| 2026-04-28 01:19 | 24.44812 | -82.09641 | 23551 ft | 376 kts | 246° |
| 2026-04-28 01:19 | 24.43615 | -82.12200 | 24032 ft | 378 kts | 247° |
| 2026-04-28 01:19 | 24.42422 | -82.14771 | 24510 ft | 379 kts | 247° |
| 2026-04-28 01:20 | 24.41220 | -82.17364 | 24969 ft | 381 kts | 247° |
| 2026-04-28 01:20 | 24.40013 | -82.19963 | 25412 ft | 383 kts | 247° |
| 2026-04-28 01:20 | 24.38805 | -82.22559 | 25832 ft | 385 kts | 247° |
| 2026-04-28 01:20 | 24.37576 | -82.25197 | 26289 ft | 385 kts | 247° |
| 2026-04-28 01:21 | 24.36363 | -82.27796 | 26678 ft | 388 kts | 248° |
| 2026-04-28 01:21 | 24.35128 | -82.30437 | 27102 ft | 389 kts | 248° |
| 2026-04-28 01:21 | 24.33900 | -82.33064 | 27496 ft | 390 kts | 248° |
| 2026-04-28 01:21 | 24.32665 | -82.35703 | 27838 ft | 393 kts | 248° |
| 2026-04-28 01:22 | 24.31406 | -82.38390 | 28236 ft | 394 kts | 248° |
| 2026-04-28 01:22 | 24.30156 | -82.41058 | 28559 ft | 396 kts | 248° |
| 2026-04-28 01:22 | 24.28891 | -82.43756 | 28923 ft | 398 kts | 248° |
| 2026-04-28 01:22 | 24.27631 | -82.46442 | 29255 ft | 399 kts | 248° |
| 2026-04-28 01:23 | 24.26366 | -82.49137 | 29569 ft | 401 kts | 248° |
| 2026-04-28 01:23 | 24.25086 | -82.51862 | 29922 ft | 402 kts | 248° |
| 2026-04-28 01:23 | 24.23793 | -82.54614 | 30185 ft | 405 kts | 248° |
| 2026-04-28 01:23 | 24.22516 | -82.57327 | 30519 ft | 405 kts | 248° |
| 2026-04-28 01:24 | 24.21213 | -82.60096 | 30768 ft | 408 kts | 248° |
| 2026-04-28 01:24 | 24.19910 | -82.62865 | 31043 ft | 410 kts | 248° |
| 2026-04-28 01:24 | 24.18614 | -82.65614 | 31341 ft | 411 kts | 248° |
| 2026-04-28 01:24 | 24.17292 | -82.68420 | 31591 ft | 414 kts | 248° |
| 2026-04-28 01:25 | 24.15980 | -82.71204 | 31879 ft | 415 kts | 248° |
| 2026-04-28 01:25 | 24.14646 | -82.74027 | 32153 ft | 417 kts | 248° |
| 2026-04-28 01:25 | 24.13313 | -82.76849 | 32403 ft | 419 kts | 248° |
| 2026-04-28 01:25 | 24.11973 | -82.79688 | 32629 ft | 421 kts | 248° |
| 2026-04-28 01:26 | 24.10625 | -82.82539 | 32885 ft | 423 kts | 248° |
| 2026-04-28 01:26 | 24.09267 | -82.85411 | 33150 ft | 425 kts | 248° |
| 2026-04-28 01:26 | 24.07912 | -82.88272 | 33416 ft | 427 kts | 248° |
| 2026-04-28 01:26 | 24.06545 | -82.91157 | 33673 ft | 428 kts | 248° |
| 2026-04-28 01:27 | 24.05164 | -82.94069 | 33959 ft | 429 kts | 248° |
| 2026-04-28 01:27 | 24.03767 | -82.97016 | 34024 ft | 433 kts | 248° |
| 2026-04-28 01:27 | 24.00973 | -83.02872 | 34029 ft | 430 kts | 247° |
| 2026-04-28 01:28 | 23.97784 | -83.08456 | 34030 ft | 436 kts | 240° |
| 2026-04-28 01:28 | 23.94161 | -83.13813 | 34032 ft | 437 kts | 238° |
| 2026-04-28 01:29 | 23.90477 | -83.19106 | 34030 ft | 437 kts | 238° |
| 2026-04-28 01:29 | 23.86809 | -83.24410 | 34030 ft | 436 kts | 238° |
| 2026-04-28 01:30 | 23.83132 | -83.29765 | 34031 ft | 437 kts | 238° |
| 2026-04-28 01:30 | 23.79513 | -83.35055 | 34029 ft | 436 kts | 238° |
| 2026-04-28 01:31 | 23.75869 | -83.40385 | 34030 ft | 436 kts | 239° |
| 2026-04-28 01:31 | 23.72237 | -83.45697 | 34030 ft | 436 kts | 239° |
| 2026-04-28 01:32 | 23.68596 | -83.51017 | 34029 ft | 437 kts | 238° |
| 2026-04-28 01:32 | 23.64967 | -83.56316 | 34029 ft | 436 kts | 238° |
| 2026-04-28 01:33 | 23.61316 | -83.61636 | 34029 ft | 436 kts | 238° |
| 2026-04-28 01:33 | 23.57674 | -83.66939 | 34027 ft | 437 kts | 238° |
| 2026-04-28 01:34 | 23.54011 | -83.72264 | 34030 ft | 437 kts | 238° |
| 2026-04-28 01:34 | 23.50373 | -83.77550 | 34030 ft | 437 kts | 238° |
| 2026-04-28 01:35 | 23.46714 | -83.82861 | 34036 ft | 436 kts | 238° |
| 2026-04-28 01:35 | 23.43077 | -83.88133 | 34036 ft | 437 kts | 238° |
| 2026-04-28 01:36 | 23.39396 | -83.93464 | 34037 ft | 438 kts | 238° |
| 2026-04-28 01:36 | 23.35734 | -83.98762 | 34035 ft | 438 kts | 238° |
| 2026-04-28 01:37 | 23.32074 | -84.04052 | 34036 ft | 437 kts | 238° |
| 2026-04-28 01:37 | 23.28411 | -84.09338 | 34035 ft | 436 kts | 238° |
| 2026-04-28 01:38 | 23.24725 | -84.14651 | 34037 ft | 436 kts | 238° |
| 2026-04-28 01:38 | 23.21059 | -84.19934 | 34035 ft | 437 kts | 238° |
| 2026-04-28 01:39 | 23.17412 | -84.25184 | 34032 ft | 437 kts | 238° |
| 2026-04-28 01:39 | 23.13714 | -84.30501 | 34030 ft | 437 kts | 238° |
| 2026-04-28 01:40 | 23.10058 | -84.35751 | 34031 ft | 437 kts | 238° |
| 2026-04-28 01:40 | 23.06413 | -84.40981 | 34033 ft | 436 kts | 237° |
| 2026-04-28 01:41 | 23.02744 | -84.46238 | 34028 ft | 435 kts | 237° |
| 2026-04-28 01:41 | 22.99068 | -84.51502 | 34033 ft | 436 kts | 238° |
| 2026-04-28 01:42 | 22.95400 | -84.56751 | 34028 ft | 436 kts | 237° |
| 2026-04-28 01:42 | 22.91748 | -84.61970 | 34031 ft | 436 kts | 237° |
| 2026-04-28 01:43 | 22.88066 | -84.67224 | 34031 ft | 436 kts | 237° |
| 2026-04-28 01:43 | 22.84386 | -84.72475 | 34034 ft | 436 kts | 237° |
| 2026-04-28 01:44 | 22.80728 | -84.77685 | 34044 ft | 436 kts | 237° |
| 2026-04-28 01:44 | 22.77023 | -84.82959 | 34036 ft | 436 kts | 237° |
| 2026-04-28 01:45 | 22.73356 | -84.88173 | 34041 ft | 436 kts | 237° |
| 2026-04-28 01:45 | 22.69663 | -84.93420 | 34031 ft | 436 kts | 237° |
| 2026-04-28 01:46 | 22.65980 | -84.98646 | 34023 ft | 436 kts | 237° |
| 2026-04-28 01:46 | 22.62302 | -85.03860 | 34020 ft | 436 kts | 237° |
| 2026-04-28 01:47 | 22.58618 | -85.09093 | 34025 ft | 437 kts | 237° |
| 2026-04-28 01:47 | 22.54964 | -85.14342 | 34016 ft | 437 kts | 237° |
| 2026-04-28 01:48 | 22.51305 | -85.19610 | 34019 ft | 437 kts | 237° |
| 2026-04-28 01:48 | 22.47654 | -85.24856 | 34019 ft | 437 kts | 237° |
| 2026-04-28 01:49 | 22.43981 | -85.30122 | 34019 ft | 436 kts | 237° |
| 2026-04-28 01:49 | 22.40338 | -85.35339 | 34014 ft | 436 kts | 237° |
| 2026-04-28 01:50 | 22.36661 | -85.40598 | 34018 ft | 437 kts | 237° |
| 2026-04-28 01:50 | 22.32997 | -85.45835 | 34016 ft | 437 kts | 237° |
| 2026-04-28 01:51 | 22.29306 | -85.51102 | 34016 ft | 437 kts | 237° |
| 2026-04-28 01:51 | 22.25609 | -85.56372 | 34018 ft | 438 kts | 236° |
| 2026-04-28 01:52 | 22.21928 | -85.61619 | 34013 ft | 437 kts | 237° |
| 2026-04-28 01:52 | 22.18279 | -85.66830 | 33949 ft | 435 kts | 236° |
| 2026-04-28 01:53 | 22.16447 | -85.69444 | 33668 ft | 428 kts | 236° |
| 2026-04-28 01:53 | 22.14682 | -85.71960 | 33378 ft | 422 kts | 236° |
| 2026-04-28 01:53 | 22.12900 | -85.74503 | 32949 ft | 427 kts | 237° |
| 2026-04-28 01:53 | 22.11097 | -85.77082 | 32426 ft | 432 kts | 237° |
| 2026-04-28 01:54 | 22.09276 | -85.79681 | 31877 ft | 431 kts | 237° |
| 2026-04-28 01:54 | 22.07482 | -85.82237 | 31336 ft | 429 kts | 237° |
| 2026-04-28 01:54 | 22.05682 | -85.84798 | 30792 ft | 427 kts | 238° |
| 2026-04-28 01:54 | 22.03881 | -85.87361 | 30247 ft | 426 kts | 238° |
| 2026-04-28 01:55 | 22.02101 | -85.89892 | 29710 ft | 424 kts | 238° |
| 2026-04-28 01:55 | 22.00341 | -85.92392 | 29174 ft | 423 kts | 238° |
| 2026-04-28 01:55 | 21.98551 | -85.94933 | 28638 ft | 422 kts | 238° |
| 2026-04-28 01:55 | 21.96752 | -85.97395 | 28099 ft | 423 kts | 236° |
| 2026-04-28 01:56 | 21.94742 | -85.99742 | 27554 ft | 426 kts | 230° |
| 2026-04-28 01:56 | 21.92596 | -86.01916 | 27016 ft | 427 kts | 227° |
| 2026-04-28 01:56 | 21.90376 | -86.04013 | 26476 ft | 426 kts | 226° |
| 2026-04-28 01:56 | 21.88105 | -86.06100 | 25927 ft | 425 kts | 225° |
| 2026-04-28 01:57 | 21.85883 | -86.08131 | 25393 ft | 423 kts | 225° |
| 2026-04-28 01:57 | 21.83644 | -86.10182 | 24854 ft | 421 kts | 225° |
| 2026-04-28 01:57 | 21.81422 | -86.12230 | 24310 ft | 419 kts | 225° |
| 2026-04-28 01:57 | 21.79221 | -86.14269 | 23770 ft | 417 kts | 225° |
| 2026-04-28 01:58 | 21.77044 | -86.16297 | 23236 ft | 415 kts | 225° |
| 2026-04-28 01:58 | 21.74852 | -86.18345 | 22686 ft | 413 kts | 225° |
| 2026-04-28 01:58 | 21.72703 | -86.20357 | 22145 ft | 411 kts | 225° |
| 2026-04-28 01:58 | 21.70561 | -86.22364 | 21610 ft | 409 kts | 225° |
| 2026-04-28 01:59 | 21.68416 | -86.24374 | 21077 ft | 407 kts | 225° |
| 2026-04-28 01:59 | 21.66282 | -86.26376 | 20543 ft | 405 kts | 224° |
| 2026-04-28 01:59 | 21.64188 | -86.28339 | 20023 ft | 403 kts | 224° |
| 2026-04-28 01:59 | 21.62087 | -86.30308 | 19496 ft | 401 kts | 224° |
| 2026-04-28 02:00 | 21.59992 | -86.32272 | 18970 ft | 399 kts | 224° |
| 2026-04-28 02:00 | 21.57888 | -86.34244 | 18445 ft | 397 kts | 224° |
| 2026-04-28 02:00 | 21.55823 | -86.36181 | 17926 ft | 395 kts | 224° |
| 2026-04-28 02:00 | 21.53756 | -86.38120 | 17385 ft | 394 kts | 223° |
| 2026-04-28 02:01 | 21.51689 | -86.40057 | 16790 ft | 395 kts | 223° |
| 2026-04-28 02:01 | 21.49616 | -86.41997 | 16189 ft | 394 kts | 223° |
| 2026-04-28 02:01 | 21.47576 | -86.43905 | 15662 ft | 391 kts | 223° |
| 2026-04-28 02:01 | 21.45532 | -86.45815 | 15148 ft | 387 kts | 223° |
| 2026-04-28 02:02 | 21.43513 | -86.47699 | 14646 ft | 384 kts | 223° |
| 2026-04-28 02:02 | 21.41507 | -86.49572 | 14140 ft | 380 kts | 223° |
| 2026-04-28 02:02 | 21.39521 | -86.51426 | 13641 ft | 377 kts | 223° |
| 2026-04-28 02:02 | 21.37558 | -86.53258 | 13144 ft | 374 kts | 223° |
| 2026-04-28 02:03 | 21.35590 | -86.55093 | 12659 ft | 371 kts | 223° |
| 2026-04-28 02:03 | 21.33657 | -86.56895 | 12171 ft | 368 kts | 223° |
| 2026-04-28 02:03 | 21.31717 | -86.58704 | 11682 ft | 365 kts | 222° |
| 2026-04-28 02:03 | 21.29805 | -86.60486 | 11201 ft | 362 kts | 222° |
| 2026-04-28 02:04 | 21.27912 | -86.62249 | 10720 ft | 359 kts | 222° |
| 2026-04-28 02:04 | 21.26049 | -86.63984 | 10251 ft | 354 kts | 222° |
| 2026-04-28 02:04 | 21.24212 | -86.65694 | 10022 ft | 341 kts | 222° |
| 2026-04-28 02:04 | 21.22443 | -86.67339 | 9706 ft | 332 kts | 222° |
| 2026-04-28 02:05 | 21.20724 | -86.68938 | 9265 ft | 330 kts | 222° |
| 2026-04-28 02:05 | 21.18982 | -86.70559 | 8853 ft | 328 kts | 221° |
| 2026-04-28 02:05 | 21.17280 | -86.72143 | 8672 ft | 319 kts | 221° |
| 2026-04-28 02:05 | 21.15634 | -86.73674 | 8625 ft | 305 kts | 221° |
| 2026-04-28 02:06 | 21.14053 | -86.75143 | 8447 ft | 296 kts | 221° |
| 2026-04-28 02:06 | 21.12515 | -86.76574 | 8137 ft | 295 kts | 221° |
| 2026-04-28 02:06 | 21.10977 | -86.78004 | 7831 ft | 292 kts | 221° |
| 2026-04-28 02:06 | 21.09450 | -86.79423 | 7524 ft | 290 kts | 221° |
| 2026-04-28 02:07 | 21.07931 | -86.80832 | 7183 ft | 287 kts | 221° |
| 2026-04-28 02:07 | 21.06414 | -86.82247 | 6811 ft | 284 kts | 223° |
| 2026-04-28 02:07 | 21.05124 | -86.83794 | 6571 ft | 277 kts | 238° |
| 2026-04-28 02:07 | 21.04421 | -86.85653 | 6339 ft | 267 kts | 262° |
| 2026-04-28 02:08 | 21.04408 | -86.87617 | 5985 ft | 263 kts | 280° |
| 2026-04-28 02:08 | 21.04844 | -86.89508 | 5668 ft | 258 kts | 294° |
| 2026-04-28 02:08 | 21.05676 | -86.91145 | 5533 ft | 245 kts | 306° |
| 2026-04-28 02:08 | 21.06662 | -86.92645 | 5218 ft | 242 kts | 308° |
| 2026-04-28 02:09 | 21.07626 | -86.94087 | 4981 ft | 237 kts | 307° |
| 2026-04-28 02:09 | 21.08541 | -86.95505 | 4775 ft | 226 kts | 306° |
| 2026-04-28 02:09 | 21.09416 | -86.96864 | 4343 ft | 220 kts | 310° |
| 2026-04-28 02:09 | 21.10537 | -86.97913 | 3838 ft | 211 kts | 337° |
| 2026-04-28 02:10 | 21.11918 | -86.98279 | 3350 ft | 202 kts | 0° |
| 2026-04-28 02:10 | 21.13281 | -86.98209 | 3086 ft | 184 kts | 14° |
| 2026-04-28 02:10 | 21.14438 | -86.97729 | 3068 ft | 175 kts | 37° |
| 2026-04-28 02:10 | 21.15317 | -86.96909 | 3066 ft | 164 kts | 51° |
| 2026-04-28 02:11 | 21.15955 | -86.95946 | 3074 ft | 153 kts | 66° |
| 2026-04-28 02:11 | 21.16269 | -86.94863 | 3049 ft | 150 kts | 81° |
| 2026-04-28 02:11 | 21.16340 | -86.93748 | 2851 ft | 151 kts | 94° |
| 2026-04-28 02:11 | 21.16120 | -86.92673 | 2619 ft | 148 kts | 109° |
| 2026-04-28 02:12 | 21.15655 | -86.91676 | 2371 ft | 148 kts | 121° |
| 2026-04-28 02:12 | 21.14976 | -86.90859 | 2130 ft | 148 kts | 136° |
| 2026-04-28 02:12 | 21.14100 | -86.90247 | 1897 ft | 150 kts | 149° |
| 2026-04-28 02:12 | 21.13109 | -86.89889 | 1657 ft | 153 kts | 164° |
| 2026-04-28 02:13 | 21.12024 | -86.89842 | 1417 ft | 157 kts | 180° |
| 2026-04-28 02:13 | 21.10996 | -86.90227 | 1270 ft | 160 kts | 212° |
| 2026-04-28 02:13 | 21.10059 | -86.90894 | 1283 ft | 161 kts | 202° |
| 2026-04-28 02:13 | 21.09009 | -86.91269 | 1287 ft | 157 kts | 186° |
| 2026-04-28 02:14 | 21.07908 | -86.91389 | 1287 ft | 156 kts | 179° |
| 2026-04-28 02:14 | 21.06839 | -86.91402 | 1282 ft | 153 kts | 168° |
| 2026-04-28 02:14 | 21.05841 | -86.91031 | 850 ft | 157 kts | 141° |
| 2026-04-28 02:14 | 21.05176 | -86.90165 | 532 ft | 148 kts | 121° |
| 2026-04-28 02:15 | 21.04080 | -86.88350 | 31 ft | 135 kts | 124° |
| 2026-04-28 02:15 | 21.03693 | -86.87760 | 24 ft | 67 kts | 124° |
| 2026-04-28 02:15 | 21.03597 | -86.87409 | 26 ft | 31 kts | 80° |
| 2026-04-28 02:16 | 21.03670 | -86.87279 | 28 ft | 10 kts | 98° |
| 2026-04-28 02:16 | 21.03645 | -86.87220 | 29 ft | 7 kts | 122° |
| 2026-04-28 02:16 | 21.03619 | -86.87186 | 30 ft | 4 kts | 128° |
| 2026-04-28 02:16 | 21.03588 | -86.87143 | 31 ft | 8 kts | 127° |
| 2026-04-28 02:17 | 21.03558 | -86.87099 | 31 ft | 5 kts | 124° |
| 2026-04-28 02:17 | 21.03570 | -86.87079 | 32 ft | 3 kts | 30° |
| 2026-04-28 02:17 | 21.03594 | -86.87063 | 32 ft | 5 kts | 33° |
| 2026-04-28 02:17 | 21.03621 | -86.87043 | 33 ft | 5 kts | 35° |
| 2026-04-28 02:18 | 21.03633 | -86.87035 | 33 ft | 0 kts | 34° |